sensor_id;sensor_type;location;lat;lon;timestamp;P1;durP1;ratioP1;P2;durP2;ratioP2
59587;SDS011;45412;54.472;18.464;2023-12-04T00:01:00;9.80;;;3.40;;
59587;SDS011;45412;54.472;18.464;2023-12-04T00:03:48;8.80;;;2.70;;
59587;SDS011;45412;54.472;18.464;2023-12-04T00:06:35;7.60;;;2.90;;
59587;SDS011;45412;54.472;18.464;2023-12-04T00:09:23;8.30;;;3.00;;
59587;SDS011;45412;54.472;18.464;2023-12-04T00:12:12;7.00;;;2.80;;
59587;SDS011;45412;54.472;18.464;2023-12-04T00:15:00;8.90;;;3.20;;
59587;SDS011;45412;54.472;18.464;2023-12-04T00:17:48;10.10;;;3.10;;
59587;SDS011;45412;54.472;18.464;2023-12-04T00:20:36;8.30;;;3.20;;
59587;SDS011;45412;54.472;18.464;2023-12-04T00:23:24;9.20;;;3.10;;
59587;SDS011;45412;54.472;18.464;2023-12-04T00:26:12;11.20;;;2.80;;
59587;SDS011;45412;54.472;18.464;2023-12-04T00:29:00;7.90;;;2.90;;
59587;SDS011;45412;54.472;18.464;2023-12-04T00:31:48;9.50;;;3.40;;
59587;SDS011;45412;54.472;18.464;2023-12-04T00:34:35;8.70;;;3.20;;
59587;SDS011;45412;54.472;18.464;2023-12-04T00:37:23;8.50;;;3.20;;
59587;SDS011;45412;54.472;18.464;2023-12-04T00:40:11;9.10;;;2.90;;
59587;SDS011;45412;54.472;18.464;2023-12-04T00:42:59;9.60;;;3.00;;
59587;SDS011;45412;54.472;18.464;2023-12-04T00:45:47;9.10;;;3.00;;
59587;SDS011;45412;54.472;18.464;2023-12-04T00:48:35;7.60;;;2.80;;
59587;SDS011;45412;54.472;18.464;2023-12-04T00:51:36;9.30;;;3.90;;
59587;SDS011;45412;54.472;18.464;2023-12-04T00:55:37;8.00;;;3.30;;
59587;SDS011;45412;54.472;18.464;2023-12-04T01:00:02;8.30;;;3.10;;
59587;SDS011;45412;54.472;18.464;2023-12-04T01:04:01;9.50;;;3.20;;
59587;SDS011;45412;54.472;18.464;2023-12-04T01:07:05;7.30;;;2.70;;
59587;SDS011;45412;54.472;18.464;2023-12-04T01:09:53;7.50;;;2.80;;
59587;SDS011;45412;54.472;18.464;2023-12-04T01:12:41;6.70;;;2.30;;
59587;SDS011;45412;54.472;18.464;2023-12-04T01:15:28;6.70;;;2.70;;
59587;SDS011;45412;54.472;18.464;2023-12-04T01:18:16;8.40;;;2.50;;
59587;SDS011;45412;54.472;18.464;2023-12-04T01:21:07;8.20;;;2.40;;
59587;SDS011;45412;54.472;18.464;2023-12-04T01:23:56;7.00;;;2.10;;
59587;SDS011;45412;54.472;18.464;2023-12-04T01:26:44;7.50;;;3.00;;
59587;SDS011;45412;54.472;18.464;2023-12-04T01:29:31;7.70;;;2.80;;
59587;SDS011;45412;54.472;18.464;2023-12-04T01:32:19;8.60;;;3.30;;
59587;SDS011;45412;54.472;18.464;2023-12-04T01:35:08;7.40;;;2.70;;
59587;SDS011;45412;54.472;18.464;2023-12-04T01:37:55;8.20;;;3.40;;
59587;SDS011;45412;54.472;18.464;2023-12-04T01:40:43;8.10;;;2.50;;
59587;SDS011;45412;54.472;18.464;2023-12-04T01:43:31;7.10;;;2.30;;
59587;SDS011;45412;54.472;18.464;2023-12-04T01:46:19;7.40;;;2.50;;
59587;SDS011;45412;54.472;18.464;2023-12-04T01:49:07;7.30;;;2.50;;
59587;SDS011;45412;54.472;18.464;2023-12-04T01:51:56;6.90;;;2.60;;
59587;SDS011;45412;54.472;18.464;2023-12-04T01:54:44;9.80;;;2.80;;
59587;SDS011;45412;54.472;18.464;2023-12-04T01:57:32;8.20;;;2.80;;
59587;SDS011;45412;54.472;18.464;2023-12-04T02:00:20;8.10;;;2.80;;
59587;SDS011;45412;54.472;18.464;2023-12-04T02:03:08;6.30;;;2.20;;
59587;SDS011;45412;54.472;18.464;2023-12-04T02:05:59;8.10;;;2.80;;
59587;SDS011;45412;54.472;18.464;2023-12-04T02:08:49;7.40;;;2.60;;
59587;SDS011;45412;54.472;18.464;2023-12-04T02:11:38;7.20;;;2.70;;
59587;SDS011;45412;54.472;18.464;2023-12-04T02:14:26;7.30;;;2.60;;
59587;SDS011;45412;54.472;18.464;2023-12-04T02:17:14;8.50;;;2.50;;
59587;SDS011;45412;54.472;18.464;2023-12-04T02:20:04;8.00;;;2.90;;
59587;SDS011;45412;54.472;18.464;2023-12-04T02:22:53;7.90;;;2.50;;
59587;SDS011;45412;54.472;18.464;2023-12-04T02:25:40;8.80;;;3.10;;
59587;SDS011;45412;54.472;18.464;2023-12-04T02:28:32;7.60;;;2.60;;
59587;SDS011;45412;54.472;18.464;2023-12-04T02:31:23;8.00;;;2.60;;
59587;SDS011;45412;54.472;18.464;2023-12-04T02:34:12;9.20;;;3.00;;
59587;SDS011;45412;54.472;18.464;2023-12-04T02:37:02;8.40;;;2.70;;
59587;SDS011;45412;54.472;18.464;2023-12-04T02:39:51;8.50;;;2.90;;
59587;SDS011;45412;54.472;18.464;2023-12-04T02:42:42;8.20;;;2.20;;
59587;SDS011;45412;54.472;18.464;2023-12-04T02:45:32;8.00;;;2.60;;
59587;SDS011;45412;54.472;18.464;2023-12-04T02:48:20;7.60;;;2.10;;
59587;SDS011;45412;54.472;18.464;2023-12-04T02:51:08;8.20;;;2.70;;
59587;SDS011;45412;54.472;18.464;2023-12-04T02:53:58;9.10;;;2.70;;
59587;SDS011;45412;54.472;18.464;2023-12-04T02:56:45;9.50;;;2.90;;
59587;SDS011;45412;54.472;18.464;2023-12-04T02:59:33;7.90;;;3.00;;
59587;SDS011;45412;54.472;18.464;2023-12-04T03:02:21;9.80;;;2.70;;
59587;SDS011;45412;54.472;18.464;2023-12-04T03:05:09;8.80;;;2.70;;
59587;SDS011;45412;54.472;18.464;2023-12-04T03:07:57;7.30;;;2.30;;
59587;SDS011;45412;54.472;18.464;2023-12-04T03:10:44;7.50;;;2.40;;
59587;SDS011;45412;54.472;18.464;2023-12-04T03:13:33;12.10;;;2.70;;
59587;SDS011;45412;54.472;18.464;2023-12-04T03:16:21;7.60;;;2.40;;
59587;SDS011;45412;54.472;18.464;2023-12-04T03:19:09;8.40;;;2.50;;
59587;SDS011;45412;54.472;18.464;2023-12-04T03:21:57;9.70;;;3.40;;
59587;SDS011;45412;54.472;18.464;2023-12-04T03:24:45;9.10;;;2.50;;
59587;SDS011;45412;54.472;18.464;2023-12-04T03:27:34;8.00;;;2.60;;
59587;SDS011;45412;54.472;18.464;2023-12-04T03:30:22;8.60;;;2.60;;
59587;SDS011;45412;54.472;18.464;2023-12-04T03:33:09;9.20;;;3.10;;
59587;SDS011;45412;54.472;18.464;2023-12-04T03:35:59;7.90;;;2.60;;
59587;SDS011;45412;54.472;18.464;2023-12-04T03:38:47;7.70;;;2.70;;
59587;SDS011;45412;54.472;18.464;2023-12-04T03:41:35;8.90;;;2.80;;
59587;SDS011;45412;54.472;18.464;2023-12-04T03:44:23;8.20;;;2.60;;
59587;SDS011;45412;54.472;18.464;2023-12-04T03:47:11;10.20;;;2.90;;
59587;SDS011;45412;54.472;18.464;2023-12-04T03:49:59;7.90;;;2.70;;
59587;SDS011;45412;54.472;18.464;2023-12-04T03:52:47;8.90;;;2.70;;
59587;SDS011;45412;54.472;18.464;2023-12-04T03:55:35;9.80;;;2.70;;
59587;SDS011;45412;54.472;18.464;2023-12-04T03:58:22;10.10;;;3.40;;
59587;SDS011;45412;54.472;18.464;2023-12-04T04:01:10;7.40;;;2.80;;
59587;SDS011;45412;54.472;18.464;2023-12-04T04:03:58;8.60;;;3.10;;
59587;SDS011;45412;54.472;18.464;2023-12-04T04:06:46;11.00;;;3.20;;
59587;SDS011;45412;54.472;18.464;2023-12-04T04:09:34;9.90;;;3.40;;
59587;SDS011;45412;54.472;18.464;2023-12-04T04:12:22;8.90;;;3.30;;
59587;SDS011;45412;54.472;18.464;2023-12-04T04:15:09;9.20;;;3.10;;
59587;SDS011;45412;54.472;18.464;2023-12-04T04:17:57;8.00;;;3.00;;
59587;SDS011;45412;54.472;18.464;2023-12-04T04:20:45;8.20;;;3.00;;
59587;SDS011;45412;54.472;18.464;2023-12-04T04:23:33;10.30;;;3.30;;
59587;SDS011;45412;54.472;18.464;2023-12-04T04:26:20;9.60;;;3.70;;
59587;SDS011;45412;54.472;18.464;2023-12-04T04:29:08;8.70;;;3.10;;
59587;SDS011;45412;54.472;18.464;2023-12-04T04:31:57;9.20;;;3.60;;
59587;SDS011;45412;54.472;18.464;2023-12-04T04:34:44;9.60;;;3.40;;
59587;SDS011;45412;54.472;18.464;2023-12-04T04:37:32;9.00;;;3.20;;
59587;SDS011;45412;54.472;18.464;2023-12-04T04:40:20;7.70;;;2.60;;
59587;SDS011;45412;54.472;18.464;2023-12-04T04:43:08;10.40;;;3.20;;
59587;SDS011;45412;54.472;18.464;2023-12-04T04:45:57;7.60;;;2.70;;
59587;SDS011;45412;54.472;18.464;2023-12-04T04:48:46;9.50;;;3.60;;
59587;SDS011;45412;54.472;18.464;2023-12-04T04:51:34;8.90;;;3.10;;
59587;SDS011;45412;54.472;18.464;2023-12-04T04:54:22;9.60;;;3.70;;
59587;SDS011;45412;54.472;18.464;2023-12-04T04:57:10;8.50;;;3.40;;
59587;SDS011;45412;54.472;18.464;2023-12-04T04:59:58;12.80;;;3.80;;
59587;SDS011;45412;54.472;18.464;2023-12-04T05:02:45;11.20;;;4.50;;
59587;SDS011;45412;54.472;18.464;2023-12-04T05:05:33;9.60;;;3.90;;
59587;SDS011;45412;54.472;18.464;2023-12-04T05:08:21;14.80;;;5.80;;
59587;SDS011;45412;54.472;18.464;2023-12-04T05:11:15;10.60;;;5.00;;
59587;SDS011;45412;54.472;18.464;2023-12-04T05:14:06;11.50;;;4.80;;
59587;SDS011;45412;54.472;18.464;2023-12-04T05:16:54;9.80;;;3.60;;
59587;SDS011;45412;54.472;18.464;2023-12-04T05:19:42;9.20;;;3.50;;
59587;SDS011;45412;54.472;18.464;2023-12-04T05:22:30;9.00;;;3.70;;
59587;SDS011;45412;54.472;18.464;2023-12-04T05:25:18;9.20;;;3.50;;
59587;SDS011;45412;54.472;18.464;2023-12-04T05:28:06;9.50;;;3.90;;
59587;SDS011;45412;54.472;18.464;2023-12-04T05:30:54;9.10;;;3.40;;
59587;SDS011;45412;54.472;18.464;2023-12-04T05:33:42;11.10;;;4.10;;
59587;SDS011;45412;54.472;18.464;2023-12-04T05:36:31;8.10;;;2.90;;
59587;SDS011;45412;54.472;18.464;2023-12-04T05:39:19;8.10;;;2.70;;
59587;SDS011;45412;54.472;18.464;2023-12-04T05:42:07;8.70;;;3.30;;
59587;SDS011;45412;54.472;18.464;2023-12-04T05:44:55;10.70;;;4.00;;
59587;SDS011;45412;54.472;18.464;2023-12-04T05:47:44;9.50;;;3.80;;
59587;SDS011;45412;54.472;18.464;2023-12-04T05:50:32;11.20;;;3.40;;
59587;SDS011;45412;54.472;18.464;2023-12-04T05:53:20;7.90;;;3.30;;
59587;SDS011;45412;54.472;18.464;2023-12-04T05:56:08;9.70;;;3.40;;
59587;SDS011;45412;54.472;18.464;2023-12-04T05:58:56;9.20;;;3.70;;
59587;SDS011;45412;54.472;18.464;2023-12-04T06:01:44;8.90;;;3.60;;
59587;SDS011;45412;54.472;18.464;2023-12-04T06:04:33;11.30;;;4.00;;
59587;SDS011;45412;54.472;18.464;2023-12-04T06:07:20;11.00;;;3.80;;
59587;SDS011;45412;54.472;18.464;2023-12-04T06:10:08;11.30;;;4.30;;
59587;SDS011;45412;54.472;18.464;2023-12-04T06:12:57;10.10;;;4.20;;
59587;SDS011;45412;54.472;18.464;2023-12-04T06:15:45;9.20;;;3.50;;
59587;SDS011;45412;54.472;18.464;2023-12-04T06:18:33;9.70;;;3.80;;
59587;SDS011;45412;54.472;18.464;2023-12-04T06:21:21;9.80;;;3.80;;
59587;SDS011;45412;54.472;18.464;2023-12-04T06:24:09;10.30;;;3.70;;
59587;SDS011;45412;54.472;18.464;2023-12-04T06:26:58;11.40;;;3.80;;
59587;SDS011;45412;54.472;18.464;2023-12-04T06:29:47;12.60;;;4.50;;
59587;SDS011;45412;54.472;18.464;2023-12-04T06:32:39;12.20;;;7.00;;
59587;SDS011;45412;54.472;18.464;2023-12-04T06:35:28;14.40;;;5.40;;
59587;SDS011;45412;54.472;18.464;2023-12-04T06:38:16;11.90;;;4.40;;
59587;SDS011;45412;54.472;18.464;2023-12-04T06:41:07;14.20;;;5.10;;
59587;SDS011;45412;54.472;18.464;2023-12-04T06:43:56;11.90;;;4.20;;
59587;SDS011;45412;54.472;18.464;2023-12-04T06:46:46;13.50;;;4.90;;
59587;SDS011;45412;54.472;18.464;2023-12-04T06:49:37;9.70;;;3.80;;
59587;SDS011;45412;54.472;18.464;2023-12-04T06:52:25;10.90;;;4.30;;
59587;SDS011;45412;54.472;18.464;2023-12-04T06:55:13;11.90;;;4.60;;
59587;SDS011;45412;54.472;18.464;2023-12-04T06:58:01;15.40;;;5.30;;
59587;SDS011;45412;54.472;18.464;2023-12-04T07:00:49;15.40;;;6.00;;
59587;SDS011;45412;54.472;18.464;2023-12-04T07:03:37;14.60;;;6.00;;
59587;SDS011;45412;54.472;18.464;2023-12-04T07:06:25;16.80;;;6.20;;
59587;SDS011;45412;54.472;18.464;2023-12-04T07:09:15;19.80;;;7.90;;
59587;SDS011;45412;54.472;18.464;2023-12-04T07:12:04;17.10;;;6.20;;
59587;SDS011;45412;54.472;18.464;2023-12-04T07:14:53;13.00;;;5.00;;
59587;SDS011;45412;54.472;18.464;2023-12-04T07:17:40;18.00;;;6.50;;
59587;SDS011;45412;54.472;18.464;2023-12-04T07:20:28;15.60;;;5.40;;
59587;SDS011;45412;54.472;18.464;2023-12-04T07:23:16;16.90;;;6.30;;
59587;SDS011;45412;54.472;18.464;2023-12-04T07:26:04;20.60;;;8.20;;
59587;SDS011;45412;54.472;18.464;2023-12-04T07:28:54;16.30;;;6.80;;
59587;SDS011;45412;54.472;18.464;2023-12-04T07:31:41;21.70;;;8.50;;
59587;SDS011;45412;54.472;18.464;2023-12-04T07:34:30;20.80;;;6.50;;
59587;SDS011;45412;54.472;18.464;2023-12-04T07:37:18;15.30;;;5.70;;
59587;SDS011;45412;54.472;18.464;2023-12-04T07:40:07;17.30;;;6.70;;
59587;SDS011;45412;54.472;18.464;2023-12-04T07:42:56;20.60;;;6.90;;
59587;SDS011;45412;54.472;18.464;2023-12-04T07:45:44;21.30;;;7.50;;
59587;SDS011;45412;54.472;18.464;2023-12-04T07:48:32;15.30;;;5.20;;
59587;SDS011;45412;54.472;18.464;2023-12-04T07:51:20;19.90;;;7.80;;
59587;SDS011;45412;54.472;18.464;2023-12-04T07:54:08;18.70;;;7.20;;
59587;SDS011;45412;54.472;18.464;2023-12-04T07:56:56;19.80;;;7.70;;
59587;SDS011;45412;54.472;18.464;2023-12-04T07:59:44;18.30;;;7.50;;
59587;SDS011;45412;54.472;18.464;2023-12-04T08:02:34;21.40;;;8.00;;
59587;SDS011;45412;54.472;18.464;2023-12-04T08:05:22;21.60;;;9.00;;
59587;SDS011;45412;54.472;18.464;2023-12-04T08:08:10;25.90;;;9.60;;
59587;SDS011;45412;54.472;18.464;2023-12-04T08:10:57;24.30;;;9.70;;
59587;SDS011;45412;54.472;18.464;2023-12-04T08:13:45;21.50;;;9.40;;
59587;SDS011;45412;54.472;18.464;2023-12-04T08:16:33;22.90;;;9.30;;
59587;SDS011;45412;54.472;18.464;2023-12-04T08:19:21;25.90;;;10.80;;
59587;SDS011;45412;54.472;18.464;2023-12-04T08:22:10;25.10;;;10.00;;
59587;SDS011;45412;54.472;18.464;2023-12-04T08:24:58;23.30;;;10.20;;
59587;SDS011;45412;54.472;18.464;2023-12-04T08:27:46;23.30;;;11.30;;
59587;SDS011;45412;54.472;18.464;2023-12-04T08:30:35;22.30;;;10.20;;
59587;SDS011;45412;54.472;18.464;2023-12-04T08:33:23;24.00;;;11.00;;
59587;SDS011;45412;54.472;18.464;2023-12-04T08:36:11;22.00;;;10.70;;
59587;SDS011;45412;54.472;18.464;2023-12-04T08:38:59;19.20;;;9.70;;
59587;SDS011;45412;54.472;18.464;2023-12-04T08:41:47;21.40;;;10.30;;
59587;SDS011;45412;54.472;18.464;2023-12-04T08:44:47;20.30;;;10.00;;
59587;SDS011;45412;54.472;18.464;2023-12-04T08:47:35;17.80;;;8.80;;
59587;SDS011;45412;54.472;18.464;2023-12-04T08:50:24;17.80;;;9.30;;
59587;SDS011;45412;54.472;18.464;2023-12-04T08:53:12;22.00;;;10.60;;
59587;SDS011;45412;54.472;18.464;2023-12-04T08:56:01;20.80;;;9.50;;
59587;SDS011;45412;54.472;18.464;2023-12-04T08:58:50;21.20;;;10.40;;
59587;SDS011;45412;54.472;18.464;2023-12-04T09:01:38;22.30;;;10.80;;
59587;SDS011;45412;54.472;18.464;2023-12-04T09:04:27;21.70;;;9.90;;
59587;SDS011;45412;54.472;18.464;2023-12-04T09:07:15;21.30;;;10.00;;
59587;SDS011;45412;54.472;18.464;2023-12-04T09:10:06;18.90;;;9.00;;
59587;SDS011;45412;54.472;18.464;2023-12-04T09:13:03;20.10;;;9.00;;
59587;SDS011;45412;54.472;18.464;2023-12-04T09:15:51;19.10;;;9.20;;
59587;SDS011;45412;54.472;18.464;2023-12-04T09:18:39;18.50;;;9.20;;
59587;SDS011;45412;54.472;18.464;2023-12-04T09:21:27;18.00;;;7.70;;
59587;SDS011;45412;54.472;18.464;2023-12-04T09:24:15;18.50;;;8.30;;
59587;SDS011;45412;54.472;18.464;2023-12-04T09:27:03;17.40;;;8.20;;
59587;SDS011;45412;54.472;18.464;2023-12-04T09:29:54;17.00;;;7.50;;
59587;SDS011;45412;54.472;18.464;2023-12-04T09:32:42;16.90;;;7.60;;
59587;SDS011;45412;54.472;18.464;2023-12-04T09:35:30;16.20;;;7.50;;
59587;SDS011;45412;54.472;18.464;2023-12-04T09:38:19;14.30;;;7.40;;
59587;SDS011;45412;54.472;18.464;2023-12-04T09:41:07;14.50;;;7.10;;
59587;SDS011;45412;54.472;18.464;2023-12-04T09:43:58;13.50;;;7.00;;
59587;SDS011;45412;54.472;18.464;2023-12-04T09:46:46;13.80;;;6.80;;
59587;SDS011;45412;54.472;18.464;2023-12-04T09:49:35;14.00;;;6.90;;
59587;SDS011;45412;54.472;18.464;2023-12-04T09:52:25;13.80;;;7.20;;
59587;SDS011;45412;54.472;18.464;2023-12-04T09:55:15;13.60;;;7.00;;
59587;SDS011;45412;54.472;18.464;2023-12-04T09:58:04;12.90;;;7.10;;
59587;SDS011;45412;54.472;18.464;2023-12-04T10:00:52;13.10;;;7.10;;
59587;SDS011;45412;54.472;18.464;2023-12-04T10:03:42;13.90;;;7.20;;
59587;SDS011;45412;54.472;18.464;2023-12-04T10:06:30;11.50;;;6.50;;
59587;SDS011;45412;54.472;18.464;2023-12-04T10:09:19;12.30;;;6.90;;
59587;SDS011;45412;54.472;18.464;2023-12-04T10:12:10;11.00;;;6.30;;
59587;SDS011;45412;54.472;18.464;2023-12-04T10:15:11;12.20;;;7.10;;
59587;SDS011;45412;54.472;18.464;2023-12-04T10:18:00;12.30;;;7.20;;
59587;SDS011;45412;54.472;18.464;2023-12-04T10:20:54;13.50;;;7.10;;
59587;SDS011;45412;54.472;18.464;2023-12-04T10:23:44;12.70;;;6.90;;
59587;SDS011;45412;54.472;18.464;2023-12-04T10:26:32;12.60;;;6.60;;
59587;SDS011;45412;54.472;18.464;2023-12-04T10:29:20;14.10;;;7.50;;
59587;SDS011;45412;54.472;18.464;2023-12-04T10:32:07;12.90;;;6.80;;
59587;SDS011;45412;54.472;18.464;2023-12-04T10:34:55;11.70;;;6.80;;
59587;SDS011;45412;54.472;18.464;2023-12-04T10:37:43;13.90;;;7.50;;
59587;SDS011;45412;54.472;18.464;2023-12-04T10:40:33;12.50;;;7.20;;
59587;SDS011;45412;54.472;18.464;2023-12-04T10:43:22;14.20;;;7.90;;
59587;SDS011;45412;54.472;18.464;2023-12-04T10:46:10;15.30;;;8.30;;
59587;SDS011;45412;54.472;18.464;2023-12-04T10:49:00;14.90;;;8.10;;
59587;SDS011;45412;54.472;18.464;2023-12-04T10:51:49;14.80;;;8.30;;
59587;SDS011;45412;54.472;18.464;2023-12-04T10:54:37;19.80;;;10.10;;
59587;SDS011;45412;54.472;18.464;2023-12-04T10:57:33;18.10;;;10.30;;
59587;SDS011;45412;54.472;18.464;2023-12-04T11:00:26;17.90;;;9.70;;
59587;SDS011;45412;54.472;18.464;2023-12-04T11:06:08;18.60;;;9.70;;
59587;SDS011;45412;54.472;18.464;2023-12-04T11:08:59;15.80;;;9.60;;
59587;SDS011;45412;54.472;18.464;2023-12-04T11:11:51;15.60;;;9.50;;
59587;SDS011;45412;54.472;18.464;2023-12-04T11:14:48;13.20;;;8.20;;
59587;SDS011;45412;54.472;18.464;2023-12-04T11:17:42;14.30;;;7.40;;
59587;SDS011;45412;54.472;18.464;2023-12-04T11:20:39;14.60;;;8.20;;
59587;SDS011;45412;54.472;18.464;2023-12-04T11:23:41;14.10;;;8.10;;
59587;SDS011;45412;54.472;18.464;2023-12-04T11:26:30;14.70;;;7.20;;
59587;SDS011;45412;54.472;18.464;2023-12-04T11:29:18;14.70;;;7.30;;
59587;SDS011;45412;54.472;18.464;2023-12-04T11:32:07;16.80;;;8.70;;
59587;SDS011;45412;54.472;18.464;2023-12-04T11:34:55;17.80;;;7.90;;
59587;SDS011;45412;54.472;18.464;2023-12-04T11:37:47;16.70;;;8.10;;
59587;SDS011;45412;54.472;18.464;2023-12-04T11:40:35;16.50;;;7.70;;
59587;SDS011;45412;54.472;18.464;2023-12-04T11:43:28;16.20;;;8.40;;
59587;SDS011;45412;54.472;18.464;2023-12-04T11:46:20;16.90;;;8.90;;
59587;SDS011;45412;54.472;18.464;2023-12-04T11:49:27;15.40;;;7.80;;
59587;SDS011;45412;54.472;18.464;2023-12-04T11:52:17;16.30;;;8.60;;
59587;SDS011;45412;54.472;18.464;2023-12-04T11:55:21;15.20;;;7.50;;
59587;SDS011;45412;54.472;18.464;2023-12-04T11:58:10;19.20;;;9.00;;
59587;SDS011;45412;54.472;18.464;2023-12-04T12:00:59;16.60;;;8.50;;
59587;SDS011;45412;54.472;18.464;2023-12-04T12:03:50;16.50;;;8.70;;
59587;SDS011;45412;54.472;18.464;2023-12-04T12:06:39;16.80;;;8.30;;
59587;SDS011;45412;54.472;18.464;2023-12-04T12:09:32;17.50;;;8.80;;
59587;SDS011;45412;54.472;18.464;2023-12-04T12:12:21;14.40;;;8.00;;
59587;SDS011;45412;54.472;18.464;2023-12-04T12:15:10;15.30;;;7.80;;
59587;SDS011;45412;54.472;18.464;2023-12-04T12:17:59;14.80;;;7.10;;
59587;SDS011;45412;54.472;18.464;2023-12-04T12:20:47;14.60;;;7.30;;
59587;SDS011;45412;54.472;18.464;2023-12-04T12:23:35;15.60;;;7.10;;
59587;SDS011;45412;54.472;18.464;2023-12-04T12:26:23;17.50;;;7.80;;
59587;SDS011;45412;54.472;18.464;2023-12-04T12:29:11;14.40;;;6.90;;
59587;SDS011;45412;54.472;18.464;2023-12-04T12:31:59;10.80;;;5.40;;
59587;SDS011;45412;54.472;18.464;2023-12-04T12:34:46;15.60;;;8.70;;
59587;SDS011;45412;54.472;18.464;2023-12-04T12:37:35;14.00;;;7.10;;
59587;SDS011;45412;54.472;18.464;2023-12-04T12:40:23;14.80;;;7.00;;
59587;SDS011;45412;54.472;18.464;2023-12-04T12:43:10;15.10;;;6.70;;
59587;SDS011;45412;54.472;18.464;2023-12-04T12:45:59;15.20;;;6.90;;
59587;SDS011;45412;54.472;18.464;2023-12-04T12:48:47;14.80;;;7.60;;
59587;SDS011;45412;54.472;18.464;2023-12-04T12:51:35;14.50;;;6.70;;
59587;SDS011;45412;54.472;18.464;2023-12-04T12:54:23;15.40;;;6.60;;
59587;SDS011;45412;54.472;18.464;2023-12-04T12:57:12;15.50;;;7.40;;
59587;SDS011;45412;54.472;18.464;2023-12-04T13:00:00;15.00;;;7.20;;
59587;SDS011;45412;54.472;18.464;2023-12-04T13:02:52;15.10;;;6.40;;
59587;SDS011;45412;54.472;18.464;2023-12-04T13:05:41;17.40;;;7.20;;
59587;SDS011;45412;54.472;18.464;2023-12-04T13:08:28;17.40;;;7.80;;
59587;SDS011;45412;54.472;18.464;2023-12-04T13:11:16;19.50;;;7.60;;
59587;SDS011;45412;54.472;18.464;2023-12-04T13:14:04;18.80;;;7.50;;
59587;SDS011;45412;54.472;18.464;2023-12-04T13:16:52;18.30;;;7.50;;
59587;SDS011;45412;54.472;18.464;2023-12-04T13:19:42;17.40;;;7.70;;
59587;SDS011;45412;54.472;18.464;2023-12-04T13:22:30;15.00;;;6.40;;
59587;SDS011;45412;54.472;18.464;2023-12-04T13:25:20;13.30;;;4.70;;
59587;SDS011;45412;54.472;18.464;2023-12-04T13:28:15;19.80;;;8.20;;
59587;SDS011;45412;54.472;18.464;2023-12-04T13:31:14;16.20;;;7.20;;
59587;SDS011;45412;54.472;18.464;2023-12-04T13:34:02;17.40;;;7.40;;
59587;SDS011;45412;54.472;18.464;2023-12-04T13:36:54;20.00;;;8.20;;
59587;SDS011;45412;54.472;18.464;2023-12-04T13:39:41;20.90;;;9.00;;
59587;SDS011;45412;54.472;18.464;2023-12-04T13:42:36;20.60;;;9.30;;
59587;SDS011;45412;54.472;18.464;2023-12-04T13:45:44;21.30;;;9.20;;
59587;SDS011;45412;54.472;18.464;2023-12-04T13:48:32;20.20;;;9.10;;
59587;SDS011;45412;54.472;18.464;2023-12-04T13:51:20;19.30;;;7.50;;
59587;SDS011;45412;54.472;18.464;2023-12-04T13:54:08;17.90;;;8.60;;
59587;SDS011;45412;54.472;18.464;2023-12-04T13:57:09;16.80;;;6.70;;
59587;SDS011;45412;54.472;18.464;2023-12-04T14:00:00;20.00;;;7.90;;
59587;SDS011;45412;54.472;18.464;2023-12-04T14:02:50;21.50;;;9.20;;
59587;SDS011;45412;54.472;18.464;2023-12-04T14:05:47;24.20;;;9.60;;
59587;SDS011;45412;54.472;18.464;2023-12-04T14:08:35;24.10;;;9.20;;
59587;SDS011;45412;54.472;18.464;2023-12-04T14:11:23;24.10;;;10.10;;
59587;SDS011;45412;54.472;18.464;2023-12-04T14:14:12;24.40;;;11.00;;
59587;SDS011;45412;54.472;18.464;2023-12-04T14:17:03;25.20;;;10.50;;
59587;SDS011;45412;54.472;18.464;2023-12-04T14:19:52;26.00;;;11.80;;
59587;SDS011;45412;54.472;18.464;2023-12-04T14:22:44;28.50;;;12.50;;
59587;SDS011;45412;54.472;18.464;2023-12-04T14:25:36;27.50;;;11.50;;
59587;SDS011;45412;54.472;18.464;2023-12-04T14:28:23;22.50;;;10.10;;
59587;SDS011;45412;54.472;18.464;2023-12-04T14:31:19;23.10;;;10.10;;
59587;SDS011;45412;54.472;18.464;2023-12-04T14:34:08;19.00;;;8.00;;
59587;SDS011;45412;54.472;18.464;2023-12-04T14:36:56;20.60;;;9.10;;
59587;SDS011;45412;54.472;18.464;2023-12-04T14:39:44;22.80;;;9.50;;
59587;SDS011;45412;54.472;18.464;2023-12-04T14:42:33;25.60;;;10.80;;
59587;SDS011;45412;54.472;18.464;2023-12-04T14:45:20;26.90;;;10.60;;
59587;SDS011;45412;54.472;18.464;2023-12-04T14:48:09;25.90;;;9.10;;
59587;SDS011;45412;54.472;18.464;2023-12-04T14:50:58;26.90;;;11.50;;
59587;SDS011;45412;54.472;18.464;2023-12-04T14:53:49;26.30;;;9.60;;
59587;SDS011;45412;54.472;18.464;2023-12-04T14:56:42;27.50;;;11.70;;
59587;SDS011;45412;54.472;18.464;2023-12-04T14:59:39;24.50;;;11.50;;
59587;SDS011;45412;54.472;18.464;2023-12-04T15:02:53;25.90;;;9.40;;
59587;SDS011;45412;54.472;18.464;2023-12-04T15:05:41;27.40;;;10.60;;
59587;SDS011;45412;54.472;18.464;2023-12-04T15:08:32;24.70;;;10.40;;
59587;SDS011;45412;54.472;18.464;2023-12-04T15:11:39;28.90;;;10.60;;
59587;SDS011;45412;54.472;18.464;2023-12-04T15:14:53;23.00;;;9.40;;
59587;SDS011;45412;54.472;18.464;2023-12-04T15:18:01;21.10;;;8.70;;
59587;SDS011;45412;54.472;18.464;2023-12-04T15:21:08;18.50;;;7.20;;
59587;SDS011;45412;54.472;18.464;2023-12-04T15:23:56;17.50;;;6.90;;
59587;SDS011;45412;54.472;18.464;2023-12-04T15:26:44;22.60;;;9.70;;
59587;SDS011;45412;54.472;18.464;2023-12-04T15:29:32;24.30;;;8.80;;
59587;SDS011;45412;54.472;18.464;2023-12-04T15:32:20;23.40;;;9.10;;
59587;SDS011;45412;54.472;18.464;2023-12-04T15:35:08;25.60;;;10.00;;
59587;SDS011;45412;54.472;18.464;2023-12-04T15:38:00;29.60;;;11.30;;
59587;SDS011;45412;54.472;18.464;2023-12-04T15:40:48;27.50;;;11.20;;
59587;SDS011;45412;54.472;18.464;2023-12-04T15:43:37;28.00;;;10.00;;
59587;SDS011;45412;54.472;18.464;2023-12-04T15:46:25;27.30;;;10.80;;
59587;SDS011;45412;54.472;18.464;2023-12-04T15:49:15;26.40;;;10.60;;
59587;SDS011;45412;54.472;18.464;2023-12-04T15:52:03;26.40;;;11.30;;
59587;SDS011;45412;54.472;18.464;2023-12-04T15:54:52;27.90;;;10.50;;
59587;SDS011;45412;54.472;18.464;2023-12-04T15:57:40;32.10;;;13.00;;
59587;SDS011;45412;54.472;18.464;2023-12-04T16:00:28;30.90;;;12.20;;
59587;SDS011;45412;54.472;18.464;2023-12-04T16:03:18;32.80;;;12.60;;
59587;SDS011;45412;54.472;18.464;2023-12-04T16:06:06;34.60;;;12.80;;
59587;SDS011;45412;54.472;18.464;2023-12-04T16:08:56;26.90;;;9.00;;
59587;SDS011;45412;54.472;18.464;2023-12-04T16:11:46;30.80;;;11.20;;
59587;SDS011;45412;54.472;18.464;2023-12-04T16:14:34;23.00;;;7.70;;
59587;SDS011;45412;54.472;18.464;2023-12-04T16:17:22;29.20;;;12.10;;
59587;SDS011;45412;54.472;18.464;2023-12-04T16:20:10;29.90;;;11.40;;
59587;SDS011;45412;54.472;18.464;2023-12-04T16:22:59;28.40;;;11.10;;
59587;SDS011;45412;54.472;18.464;2023-12-04T16:25:47;28.70;;;10.80;;
59587;SDS011;45412;54.472;18.464;2023-12-04T16:28:34;27.10;;;10.10;;
59587;SDS011;45412;54.472;18.464;2023-12-04T16:31:22;34.40;;;13.20;;
59587;SDS011;45412;54.472;18.464;2023-12-04T16:34:10;32.20;;;13.70;;
59587;SDS011;45412;54.472;18.464;2023-12-04T16:36:59;34.10;;;12.30;;
59587;SDS011;45412;54.472;18.464;2023-12-04T16:39:47;31.60;;;11.60;;